createdAt,value
2018-09-27T00:00:04.123Z,13.00
2018-09-27T00:02:32.555Z,12.60
2018-09-27T00:05:01.328Z,12.50
2018-09-27T00:07:29.764Z,12.60
2018-09-27T00:09:57.909Z,12.20
2018-09-27T00:12:26.372Z,13.10
2018-09-27T00:14:54.767Z,12.60
2018-09-27T00:17:23.550Z,12.60
2018-09-27T00:19:51.908Z,12.60
2018-09-27T00:22:20.544Z,12.80
2018-09-27T00:24:49.092Z,12.70
2018-09-27T00:27:17.615Z,12.00
2018-09-27T00:29:46.019Z,12.70
2018-09-27T00:32:14.391Z,12.80
2018-09-27T00:34:42.768Z,12.30
2018-09-27T00:37:11.223Z,12.70
2018-09-27T00:39:39.837Z,12.60
2018-09-27T00:42:08.271Z,12.40
2018-09-27T00:44:36.860Z,12.00
2018-09-27T00:47:05.383Z,11.90
2018-09-27T00:49:34.167Z,12.50
2018-09-27T00:52:02.705Z,12.20
2018-09-27T00:54:31.236Z,12.60
2018-09-27T00:56:59.943Z,12.50
2018-09-27T00:59:28.530Z,12.50
2018-09-27T01:01:57.105Z,12.60
2018-09-27T01:04:25.917Z,12.70
2018-09-27T01:06:54.514Z,12.40
2018-09-27T01:09:23.055Z,12.40
2018-09-27T01:11:51.558Z,12.20
2018-09-27T01:14:20.240Z,12.50
2018-09-27T01:16:48.839Z,11.80
2018-09-27T01:19:17.526Z,12.50
2018-09-27T01:21:46.072Z,12.40
2018-09-27T01:24:14.732Z,12.00
2018-09-27T01:26:43.235Z,12.40
2018-09-27T01:29:12.016Z,12.30
2018-09-27T01:31:40.578Z,12.50
2018-09-27T01:34:09.168Z,12.70
2018-09-27T01:36:37.710Z,12.40
2018-09-27T01:39:07.973Z,12.80
2018-09-27T01:41:36.504Z,12.30
2018-09-27T01:44:05.068Z,12.60
2018-09-27T01:46:33.845Z,12.40
2018-09-27T01:49:02.411Z,12.40
2018-09-27T01:51:30.938Z,12.20
2018-09-27T01:53:59.465Z,12.10
2018-09-27T01:56:27.996Z,12.30
2018-09-27T01:58:56.646Z,11.90
2018-09-27T02:01:25.172Z,12.20
2018-09-27T02:03:53.690Z,12.30
2018-09-27T02:06:22.325Z,12.70
2018-09-27T02:08:50.822Z,12.30
2018-09-27T02:11:19.365Z,12.60
2018-09-27T02:13:47.890Z,12.10
2018-09-27T02:16:16.392Z,12.10
2018-09-27T02:18:44.902Z,12.10
2018-09-27T02:21:13.668Z,12.10
2018-09-27T02:23:42.266Z,12.30
2018-09-27T02:26:10.877Z,12.00
2018-09-27T02:28:39.725Z,12.80
2018-09-27T02:31:08.541Z,12.20
2018-09-27T02:33:37.125Z,11.90
2018-09-27T02:36:05.737Z,12.00
2018-09-27T02:38:34.492Z,12.00
2018-09-27T02:41:03.125Z,12.00
2018-09-27T02:43:31.880Z,12.10
2018-09-27T02:46:00.444Z,11.30
2018-09-27T02:48:28.964Z,11.50
2018-09-27T02:50:57.552Z,11.90
2018-09-27T02:53:26.047Z,11.90
2018-09-27T02:55:54.762Z,12.00
2018-09-27T02:58:23.618Z,12.20
2018-09-27T03:00:52.182Z,12.20
2018-09-27T03:03:20.998Z,12.00
2018-09-27T03:05:49.506Z,11.80
2018-09-27T03:08:17.986Z,12.00
2018-09-27T03:10:46.187Z,12.00
2018-09-27T03:13:14.937Z,11.60
2018-09-27T03:15:43.407Z,11.20
2018-09-27T03:18:12.332Z,11.70
2018-09-27T03:20:41.039Z,11.20
2018-09-27T03:23:09.642Z,11.90
2018-09-27T03:25:37.866Z,11.50
2018-09-27T03:28:06.414Z,11.70
2018-09-27T03:30:34.938Z,11.90
2018-09-27T03:33:03.497Z,11.60
2018-09-27T03:35:32.210Z,11.90
2018-09-27T03:38:01.127Z,11.40
2018-09-27T03:40:29.935Z,11.60
2018-09-27T03:42:58.544Z,11.60
2018-09-27T03:45:27.102Z,11.80
2018-09-27T03:47:55.710Z,11.70
2018-09-27T03:50:30.857Z,11.60
2018-09-27T03:52:59.726Z,11.60
2018-09-27T03:55:28.253Z,11.70
2018-09-27T03:57:56.826Z,11.50
2018-09-27T04:00:25.688Z,11.00
2018-09-27T04:02:54.438Z,11.60
2018-09-27T04:05:30.035Z,11.50
2018-09-27T04:07:59.655Z,11.50
2018-09-27T04:10:28.213Z,11.50
2018-09-27T04:12:57.001Z,11.40
2018-09-27T04:15:25.694Z,11.30
2018-09-27T04:17:54.188Z,11.40
2018-09-27T04:20:22.694Z,11.50
2018-09-27T04:22:51.302Z,11.50
2018-09-27T04:25:19.834Z,11.20
2018-09-27T04:27:48.519Z,11.30
2018-09-27T04:30:17.252Z,11.30
2018-09-27T04:32:46.008Z,11.40
2018-09-27T04:35:14.557Z,11.30
2018-09-27T04:37:43.232Z,11.20
2018-09-27T04:40:11.741Z,11.30
2018-09-27T04:42:40.551Z,11.20
2018-09-27T04:45:09.179Z,11.20
2018-09-27T04:47:37.670Z,11.20
2018-09-27T04:50:06.348Z,11.00
2018-09-27T04:52:34.907Z,11.10
2018-09-27T04:55:03.815Z,11.20
2018-09-27T04:57:32.696Z,10.70
2018-09-27T05:00:01.262Z,11.30
2018-09-27T05:02:31.247Z,11.30
2018-09-27T05:05:00.196Z,11.20
2018-09-27T05:07:28.471Z,11.20
2018-09-27T05:09:57.062Z,11.10
2018-09-27T05:12:25.861Z,11.00
2018-09-27T05:14:54.532Z,10.60
2018-09-27T05:17:23.100Z,11.10
2018-09-27T05:19:51.733Z,11.00
2018-09-27T05:22:20.732Z,11.10
2018-09-27T05:24:49.329Z,11.00
2018-09-27T05:27:18.303Z,10.50
2018-09-27T05:29:47.109Z,11.20
2018-09-27T05:32:15.593Z,11.10
2018-09-27T05:34:44.279Z,10.80
2018-09-27T05:37:12.899Z,11.10
2018-09-27T05:39:41.597Z,10.60
2018-09-27T05:42:11.043Z,10.20
2018-09-27T05:44:39.752Z,11.00
2018-09-27T05:47:08.479Z,11.20
2018-09-27T05:49:37.092Z,11.20
2018-09-27T05:52:05.860Z,10.70
2018-09-27T05:54:34.505Z,11.10
2018-09-27T05:57:03.847Z,10.90
2018-09-27T05:59:32.501Z,10.80
2018-09-27T06:02:01.211Z,10.90
2018-09-27T06:04:29.779Z,10.80
2018-09-27T06:06:58.510Z,11.00
2018-09-27T06:09:27.404Z,10.80
2018-09-27T06:11:56.344Z,10.40
2018-09-27T06:14:24.899Z,11.00
2018-09-27T06:16:53.645Z,10.90
2018-09-27T06:19:22.211Z,11.10
2018-09-27T06:21:50.920Z,11.10
2018-09-27T06:24:19.518Z,10.90
2018-09-27T06:26:48.162Z,10.90
2018-09-27T06:29:16.781Z,11.10
2018-09-27T06:31:45.478Z,10.60
2018-09-27T06:34:14.271Z,11.20
2018-09-27T06:36:42.833Z,11.00
2018-09-27T06:39:11.549Z,11.20
2018-09-27T06:41:40.305Z,11.20
2018-09-27T06:44:09.013Z,11.20
2018-09-27T06:46:37.558Z,11.10
2018-09-27T06:49:06.318Z,11.20
2018-09-27T06:51:35.122Z,11.40
2018-09-27T06:54:03.779Z,11.20
2018-09-27T06:56:32.595Z,11.30
2018-09-27T06:59:01.349Z,11.60
2018-09-27T07:01:30.173Z,11.60
2018-09-27T07:03:58.730Z,11.40
2018-09-27T07:06:27.276Z,12.00
2018-09-27T07:08:56.327Z,11.20
2018-09-27T07:11:24.924Z,12.00
2018-09-27T07:13:53.497Z,11.60
2018-09-27T07:16:21.980Z,11.40
2018-09-27T07:18:50.662Z,11.90
2018-09-27T07:21:19.165Z,12.30
2018-09-27T07:23:47.682Z,12.00
2018-09-27T07:26:16.271Z,12.00
2018-09-27T07:28:44.798Z,11.90
2018-09-27T07:31:13.415Z,12.10
2018-09-27T07:33:41.929Z,12.40
2018-09-27T07:36:10.618Z,12.20
2018-09-27T07:38:39.195Z,12.10
2018-09-27T07:41:08.051Z,12.30
2018-09-27T07:43:36.600Z,12.60
2018-09-27T07:46:05.184Z,12.30
2018-09-27T07:48:33.733Z,12.70
2018-09-27T07:51:02.300Z,13.10
2018-09-27T07:53:30.849Z,12.70
2018-09-27T07:55:59.152Z,13.10
2018-09-27T07:58:27.840Z,13.30
2018-09-27T08:00:56.410Z,14.30
2018-09-27T08:03:24.995Z,14.50
2018-09-27T08:05:53.551Z,15.50
2018-09-27T08:08:22.088Z,15.70
2018-09-27T08:10:51.156Z,15.70
2018-09-27T08:13:19.682Z,15.90
2018-09-27T08:15:48.331Z,16.80
2018-09-27T08:18:17.198Z,16.70
2018-09-27T08:20:45.865Z,17.60
2018-09-27T08:23:14.457Z,17.30
2018-09-27T08:25:43.064Z,17.20
2018-09-27T08:28:11.583Z,17.50
2018-09-27T08:30:40.789Z,17.10
2018-09-27T08:33:09.866Z,17.70
2018-09-27T08:35:38.757Z,17.40
2018-09-27T08:38:07.300Z,17.80
2018-09-27T08:40:36.052Z,17.50
2018-09-27T08:43:04.773Z,17.70
2018-09-27T08:45:33.648Z,17.80
2018-09-27T08:48:02.441Z,18.00
2018-09-27T08:50:31.123Z,18.20
2018-09-27T08:52:59.767Z,17.90
2018-09-27T08:55:28.184Z,18.40
2018-09-27T08:57:56.858Z,18.00
2018-09-27T09:00:26.118Z,17.90
2018-09-27T09:02:55.068Z,18.50
2018-09-27T09:05:24.364Z,18.90
2018-09-27T09:07:53.150Z,18.40
2018-09-27T09:10:22.611Z,18.60
2018-09-27T09:12:51.403Z,18.90
2018-09-27T09:15:20.919Z,19.10
2018-09-27T09:17:49.859Z,19.00
2018-09-27T09:20:18.607Z,19.30
2018-09-27T09:22:48.280Z,19.30
2018-09-27T09:25:16.696Z,19.40
2018-09-27T09:27:45.602Z,19.40
2018-09-27T09:30:14.580Z,19.40
2018-09-27T09:32:43.565Z,19.20
2018-09-27T09:35:12.517Z,19.30
2018-09-27T09:37:41.243Z,19.70
2018-09-27T09:40:09.801Z,19.10
2018-09-27T09:42:38.524Z,20.10
2018-09-27T09:45:07.461Z,20.10
2018-09-27T09:47:36.105Z,20.40
2018-09-27T09:50:08.841Z,20.20
2018-09-27T09:52:40.157Z,20.00
2018-09-27T09:55:09.908Z,20.20
2018-09-27T09:57:38.969Z,20.80
2018-09-27T10:00:08.421Z,20.70
2018-09-27T10:02:38.258Z,20.60
2018-09-27T10:05:07.218Z,20.60
2018-09-27T10:07:35.832Z,21.20
2018-09-27T10:10:06.128Z,20.90
2018-09-27T10:12:35.193Z,21.10
2018-09-27T10:15:04.672Z,21.40
2018-09-27T10:17:34.104Z,22.10
2018-09-27T10:20:03.799Z,22.00
2018-09-27T10:22:35.706Z,21.40
2018-09-27T10:25:04.410Z,22.10
2018-09-27T10:27:33.363Z,22.20
2018-09-27T10:30:02.118Z,21.60
2018-09-27T10:32:30.936Z,22.50
2018-09-27T10:34:59.969Z,22.90
2018-09-27T10:42:10.600Z,22.70
2018-09-27T10:44:39.429Z,23.20
2018-09-27T10:47:11.612Z,22.90
2018-09-27T10:49:40.648Z,23.10
2018-09-27T10:52:13.809Z,23.60
2018-09-27T10:54:43.624Z,23.30
2018-09-27T10:57:15.489Z,24.00
2018-09-27T10:59:47.754Z,23.60
2018-09-27T11:02:25.914Z,23.70
2018-09-27T11:05:25.558Z,23.70
2018-09-27T11:08:00.894Z,23.80
2018-09-27T11:10:29.775Z,24.00
2018-09-27T11:12:58.744Z,24.30
2018-09-27T11:15:28.953Z,24.30
2018-09-27T11:17:59.191Z,24.70
2018-09-27T11:20:31.383Z,24.20
2018-09-27T11:23:02.874Z,24.60
2018-09-27T11:25:37.092Z,24.30
2018-09-27T11:28:06.510Z,24.60
2018-09-27T11:30:35.677Z,24.30
2018-09-27T11:33:07.629Z,24.90
2018-09-27T11:35:36.605Z,24.40
2018-09-27T11:38:07.307Z,25.10
2018-09-27T11:40:40.571Z,24.50
2018-09-27T11:43:09.329Z,25.10
2018-09-27T11:45:38.032Z,25.20
2018-09-27T11:48:06.740Z,25.50
2018-09-27T11:50:35.304Z,25.80
2018-09-27T11:53:07.076Z,25.20
2018-09-27T11:55:35.746Z,25.40
2018-09-27T11:58:04.776Z,25.50
2018-09-27T12:00:33.602Z,25.10
2018-09-27T12:03:02.297Z,25.40
2018-09-27T12:05:30.943Z,25.60
2018-09-27T12:08:06.379Z,25.20
2018-09-27T12:10:34.962Z,25.90
2018-09-27T12:13:03.570Z,25.40
2018-09-27T12:15:32.185Z,25.90
2018-09-27T12:18:01.016Z,25.90
2018-09-27T12:20:29.780Z,25.70
2018-09-27T12:22:58.491Z,26.10
2018-09-27T12:25:27.210Z,26.00
2018-09-27T12:27:55.806Z,25.60
2018-09-27T12:30:24.538Z,26.10
2018-09-27T12:32:53.733Z,25.30
2018-09-27T12:35:22.434Z,26.00
2018-09-27T12:37:51.106Z,26.70
2018-09-27T12:40:19.707Z,26.00
2018-09-27T12:42:48.376Z,25.80
2018-09-27T12:45:16.962Z,26.60
2018-09-27T12:47:45.702Z,26.50
2018-09-27T12:50:14.588Z,26.00
2018-09-27T12:52:43.371Z,26.60
2018-09-27T12:55:11.866Z,26.60
2018-09-27T12:57:40.736Z,26.40
2018-09-27T13:00:09.607Z,26.20
2018-09-27T13:02:38.368Z,26.10
2018-09-27T13:05:07.052Z,26.70
2018-09-27T13:07:35.733Z,26.30
2018-09-27T13:10:04.622Z,26.80
2018-09-27T13:12:33.294Z,26.30
2018-09-27T13:15:02.023Z,26.90
2018-09-27T13:17:30.761Z,27.10
2018-09-27T13:19:59.433Z,26.90
2018-09-27T13:22:28.325Z,27.30
2018-09-27T13:24:58.078Z,27.30
2018-09-27T13:27:26.708Z,27.50
2018-09-27T13:29:55.569Z,26.60
2018-09-27T13:32:24.297Z,26.80
2018-09-27T13:34:53.131Z,27.20
2018-09-27T13:37:23.021Z,27.50
2018-09-27T13:39:51.685Z,27.70
2018-09-27T13:42:20.211Z,27.10
2018-09-27T13:44:49.483Z,27.10
2018-09-27T13:47:18.063Z,27.60
2018-09-27T13:49:46.627Z,27.30
2018-09-27T13:52:16.180Z,27.40
2018-09-27T13:54:45.001Z,27.90
2018-09-27T13:57:13.736Z,27.40
2018-09-27T13:59:42.318Z,26.80
2018-09-27T14:02:10.948Z,27.30
2018-09-27T14:04:39.866Z,26.90
2018-09-27T14:07:08.818Z,27.30
2018-09-27T14:09:37.472Z,27.40
2018-09-27T14:12:06.277Z,27.40
2018-09-27T14:14:35.781Z,27.90
2018-09-27T14:17:04.867Z,27.40
2018-09-27T14:19:33.483Z,26.80
2018-09-27T14:22:02.076Z,27.20
2018-09-27T14:24:30.996Z,27.70
2018-09-27T14:26:59.699Z,27.70
2018-09-27T14:29:28.343Z,28.20
2018-09-27T14:31:57.298Z,27.70
2018-09-27T14:34:26.042Z,27.90
2018-09-27T14:37:01.634Z,27.60
2018-09-27T14:39:30.287Z,28.10
2018-09-27T14:41:59.084Z,27.50
2018-09-27T14:44:27.861Z,28.30
2018-09-27T14:46:56.448Z,27.90
2018-09-27T14:49:25.271Z,27.90
2018-09-27T14:51:53.609Z,27.90
2018-09-27T14:54:22.358Z,27.40
2018-09-27T14:56:51.154Z,28.10
2018-09-27T14:59:20.150Z,27.90
2018-09-27T15:01:48.885Z,27.50
2018-09-27T15:04:17.513Z,27.00
2018-09-27T15:06:46.324Z,27.00
2018-09-27T15:09:15.683Z,26.90
2018-09-27T15:11:44.235Z,27.40
2018-09-27T15:14:12.876Z,27.10
2018-09-27T15:16:41.612Z,26.80
2018-09-27T15:19:10.303Z,26.30
2018-09-27T15:21:38.603Z,26.20
2018-09-27T15:24:07.265Z,25.60
2018-09-27T15:26:36.342Z,25.50
2018-09-27T15:29:04.966Z,25.00
2018-09-27T15:31:33.615Z,24.80
2018-09-27T15:34:02.636Z,24.60
2018-09-27T15:36:31.776Z,24.20
2018-09-27T15:39:00.646Z,23.20
2018-09-27T15:41:29.783Z,24.10
2018-09-27T15:44:00.842Z,23.90
2018-09-27T15:46:29.446Z,23.70
2018-09-27T15:48:58.483Z,23.80
2018-09-27T15:51:27.386Z,23.20
2018-09-27T15:53:56.009Z,22.90
2018-09-27T15:56:24.885Z,23.00
2018-09-27T15:58:53.685Z,22.50
2018-09-27T16:01:22.483Z,22.40
2018-09-27T16:03:51.141Z,22.60
2018-09-27T16:06:20.207Z,22.60
2018-09-27T16:08:48.780Z,22.00
2018-09-27T16:11:17.534Z,21.80
2018-09-27T16:13:46.204Z,21.90
2018-09-27T16:16:14.808Z,22.20
2018-09-27T16:18:43.386Z,22.10
2018-09-27T16:21:11.982Z,22.40
2018-09-27T16:23:40.671Z,21.90
2018-09-27T16:26:09.539Z,22.20
2018-09-27T16:28:38.458Z,21.90
2018-09-27T16:31:07.235Z,21.60
2018-09-27T16:33:36.484Z,21.80
2018-09-27T16:36:05.274Z,21.70
2018-09-27T16:38:34.645Z,21.50
2018-09-27T16:41:03.867Z,21.10
2018-09-27T16:43:34.413Z,21.30
2018-09-27T16:46:04.067Z,20.90
2018-09-27T16:48:32.853Z,20.60
2018-09-27T16:51:01.510Z,20.70
2018-09-27T16:53:30.281Z,20.70
2018-09-27T16:55:59.250Z,20.20
2018-09-27T16:58:27.962Z,20.20
2018-09-27T17:00:56.566Z,20.10
2018-09-27T17:03:25.283Z,19.50
2018-09-27T17:05:54.144Z,19.70
2018-09-27T17:08:22.916Z,19.60
2018-09-27T17:10:51.550Z,19.60
2018-09-27T17:13:20.144Z,19.60
2018-09-27T17:15:48.762Z,19.80
2018-09-27T17:18:17.383Z,19.80
2018-09-27T17:20:46.075Z,19.20
2018-09-27T17:23:14.727Z,18.90
2018-09-27T17:25:43.381Z,19.10
2018-09-27T17:28:11.977Z,19.10
2018-09-27T17:30:40.797Z,19.20
2018-09-27T17:33:09.513Z,18.90
2018-09-27T17:35:38.095Z,18.40
2018-09-27T17:38:07.172Z,19.00
2018-09-27T17:40:35.663Z,19.00
2018-09-27T17:43:05.593Z,18.40
2018-09-27T17:45:34.319Z,18.70
2018-09-27T17:48:03.739Z,18.80
2018-09-27T17:50:32.671Z,18.70
2018-09-27T17:53:01.604Z,18.80
2018-09-27T17:55:29.900Z,18.00
2018-09-27T17:58:00.535Z,17.80
2018-09-27T18:00:30.022Z,18.00
2018-09-27T18:02:58.887Z,17.90
2018-09-27T18:05:27.638Z,17.60
2018-09-27T18:07:58.206Z,17.60
2018-09-27T18:10:26.889Z,17.20
2018-09-27T18:12:55.655Z,17.60
2018-09-27T18:15:25.737Z,17.50
2018-09-27T18:17:54.447Z,17.50
2018-09-27T18:20:23.779Z,17.30
2018-09-27T18:22:52.750Z,16.40
2018-09-27T18:25:22.737Z,16.80
2018-09-27T18:27:51.765Z,17.00
2018-09-27T18:30:21.993Z,16.70
2018-09-27T18:32:50.958Z,16.40
2018-09-27T18:35:19.852Z,16.40
2018-09-27T18:37:49.261Z,16.70
2018-09-27T18:40:18.231Z,16.00
2018-09-27T18:42:47.033Z,16.00
2018-09-27T18:45:15.686Z,16.20
2018-09-27T18:47:44.369Z,16.30
2018-09-27T18:50:13.465Z,16.40
2018-09-27T18:52:42.179Z,16.10
2018-09-27T18:55:10.805Z,15.70
2018-09-27T18:57:39.501Z,16.00
2018-09-27T19:00:08.967Z,15.80
2018-09-27T19:02:38.149Z,15.70
2018-09-27T19:05:07.005Z,15.00
2018-09-27T19:07:35.909Z,15.30
2018-09-27T19:10:05.362Z,15.40
2018-09-27T19:12:34.182Z,15.00
2018-09-27T19:15:02.992Z,15.50
2018-09-27T19:17:31.661Z,15.60
2018-09-27T19:20:00.646Z,15.50
2018-09-27T19:22:29.443Z,15.10
2018-09-27T19:24:58.056Z,15.30
2018-09-27T19:27:26.687Z,15.10
2018-09-27T19:29:55.574Z,14.70
2018-09-27T19:32:24.592Z,15.30
2018-09-27T19:34:53.275Z,15.20
2018-09-27T19:37:21.547Z,15.10
2018-09-27T19:39:50.324Z,15.00
2018-09-27T19:42:19.366Z,15.10
2018-09-27T19:44:48.687Z,15.20
2018-09-27T19:47:18.755Z,14.80
2018-09-27T19:49:47.747Z,15.00
2018-09-27T19:52:16.679Z,14.80
2018-09-27T19:54:45.131Z,14.70
2018-09-27T19:57:13.839Z,14.30
2018-09-27T19:59:42.481Z,14.00
2018-09-27T20:02:12.142Z,14.60
2018-09-27T20:04:41.018Z,14.30
2018-09-27T20:07:09.761Z,14.20
2018-09-27T20:09:41.383Z,14.00
2018-09-27T20:12:11.261Z,14.20
2018-09-27T20:14:40.123Z,14.00
2018-09-27T20:17:09.167Z,14.10
2018-09-27T20:19:37.987Z,14.20
2018-09-27T20:22:09.811Z,13.80
2018-09-27T20:24:38.484Z,13.90
2018-09-27T20:27:08.507Z,14.00
2018-09-27T20:32:10.624Z,14.20
2018-09-27T20:34:40.121Z,13.80
2018-09-27T20:37:09.435Z,13.80
2018-09-27T20:39:39.267Z,14.10
2018-09-27T20:42:08.016Z,13.60
2018-09-27T20:44:36.600Z,13.90
2018-09-27T20:47:05.260Z,13.80
2018-09-27T20:49:33.795Z,13.90
2018-09-27T20:52:02.433Z,13.80
2018-09-27T20:54:31.575Z,13.50
2018-09-27T20:57:00.359Z,13.40
2018-09-27T20:59:29.138Z,13.50
2018-09-27T21:01:57.776Z,13.60
2018-09-27T21:04:26.505Z,13.20
2018-09-27T21:06:55.446Z,13.10
2018-09-27T21:09:24.104Z,13.20
2018-09-27T21:11:52.726Z,13.30
2018-09-27T21:14:21.349Z,13.30
2018-09-27T21:16:50.093Z,13.60
2018-09-27T21:19:19.892Z,13.60
2018-09-27T21:21:49.259Z,13.70
2018-09-27T21:24:17.893Z,13.30
2018-09-27T21:26:46.787Z,13.60
2018-09-27T21:29:15.623Z,13.20
2018-09-27T21:31:44.802Z,12.70
2018-09-27T21:34:13.431Z,13.60
2018-09-27T21:36:42.176Z,13.00
2018-09-27T21:39:11.046Z,13.40
2018-09-27T21:41:39.631Z,13.10
2018-09-27T21:44:08.406Z,13.30
2018-09-27T21:46:37.059Z,13.20
2018-09-27T21:49:06.027Z,13.00
2018-09-27T21:51:34.724Z,13.30
2018-09-27T21:54:03.403Z,13.20
2018-09-27T21:56:31.974Z,12.90
2018-09-27T21:59:00.557Z,12.90
2018-09-27T22:01:29.184Z,12.80
2018-09-27T22:03:57.867Z,13.00
2018-09-27T22:06:26.745Z,12.90
2018-09-27T22:08:55.710Z,12.80
2018-09-27T22:11:24.543Z,13.00
2018-09-27T22:13:53.135Z,13.10
2018-09-27T22:16:21.710Z,13.10
2018-09-27T22:18:50.387Z,13.00
2018-09-27T22:21:19.127Z,13.00
2018-09-27T22:23:47.836Z,13.00
2018-09-27T22:26:16.496Z,12.20
2018-09-27T22:28:45.053Z,12.60
2018-09-27T22:31:13.770Z,12.90
2018-09-27T22:33:42.446Z,12.80
2018-09-27T22:36:11.329Z,13.00
2018-09-27T22:38:40.210Z,13.00
2018-09-27T22:41:08.766Z,13.40
2018-09-27T22:43:37.344Z,13.00
2018-09-27T22:46:06.188Z,13.00
2018-09-27T22:48:34.850Z,13.30
2018-09-27T22:51:03.582Z,13.30
2018-09-27T22:53:32.157Z,12.80
2018-09-27T22:56:00.901Z,13.20
2018-09-27T22:58:29.490Z,13.70
2018-09-27T23:00:58.162Z,13.40
2018-09-27T23:03:26.889Z,13.50
2018-09-27T23:05:55.433Z,13.40
2018-09-27T23:08:23.993Z,13.70
2018-09-27T23:10:52.576Z,12.70
2018-09-27T23:13:21.376Z,13.60
2018-09-27T23:15:49.983Z,13.30
2018-09-27T23:18:18.703Z,13.40
2018-09-27T23:20:47.299Z,13.50
2018-09-27T23:23:15.987Z,12.80
2018-09-27T23:25:44.575Z,13.70
2018-09-27T23:28:13.321Z,13.40
2018-09-27T23:30:41.852Z,13.90
2018-09-27T23:33:10.591Z,13.60
2018-09-27T23:35:39.162Z,12.80
2018-09-27T23:38:08.065Z,13.70
2018-09-27T23:40:36.679Z,13.40
2018-09-27T23:43:05.284Z,13.30
2018-09-27T23:45:33.904Z,13.50
2018-09-27T23:48:02.493Z,13.50
2018-09-27T23:50:31.056Z,13.00
2018-09-27T23:52:59.909Z,13.90
2018-09-27T23:55:28.586Z,13.70
2018-09-27T23:57:57.401Z,13.60
